Nada — HP7329 — position and weather

sailwx.info

Track history (hours):
 
Tides and Currents Weather Stations Pressure Air Temp Water Temp Dewpoint Dewpoint Depression Visibility Wind Speed Wind Dir Waves Ship Positions

Nada

Last reported at 2018-Apr-17 06:48 UTC. Time now 2018-Apr-21 00:20 UTC.
Position N 37°30' W 000°48'.

Length 201 m; draft 10.2 m.

Type: Cargo ship. MMSI: 372415000.

Date/timePositionNaut miles runAvg speedWind from/ knotsBaromVisibWave heightAir tempDewpointWater temp
2018-Apr-17 06:48N 37°30' W 000°48'617.4
2018-Apr-17 06:28N 37°30' W 000°41'817.1
2018-Apr-17 06:00N 37°30' W 000°31'69014.9
2018-Apr-15 07:32N 36°22' E 013°49'625.9
2018-Apr-15 07:17N 36°19' E 013°56'816.2
2018-Apr-15 06:48N 36°15' E 014°04'615.2
2018-Apr-15 06:25N 36°12' E 014°10'818.9
2018-Apr-15 06:00N 36°09' E 014°19'916.9
2018-Apr-15 05:29N 36°03' E 014°27'816.0
2018-Apr-15 04:59N 35°58' E 014°34'2 3.3
2018-Apr-15 04:29N 35°56' E 014°35'1 1.7
2018-Apr-15 04:00N 35°57' E 014°35'79616.7
2018-Apr-13 04:27N 35°30' E 030°54'817.2
2018-Apr-13 04:00N 35°31' E 031°03'917.2
2018-Apr-13 03:30N 35°33' E 031°14'  
Track history (hours):
 
Tides and Currents Weather Stations Pressure Air Temp Water Temp Dewpoint Dewpoint Depression Visibility Wind Speed Wind Dir Waves Ship Positions

Nada

Last reported at 2018-Apr-17 06:48 UTC. Time now 2018-Apr-21 00:20 UTC.
Position N 37°30' W 000°48'.

Length 201 m; draft 10.2 m.

Type: Cargo ship. MMSI: 372415000.

Date/timePositionNaut miles runAvg speedWind from/ knotsBaromVisibWave heightAir tempDewpointWater temp
2018-Apr-17 06:48N 37°30' W 000°48'617.4
2018-Apr-17 06:28N 37°30' W 000°41'817.1
2018-Apr-17 06:00N 37°30' W 000°31'69014.9
2018-Apr-15 07:32N 36°22' E 013°49'625.9
2018-Apr-15 07:17N 36°19' E 013°56'816.2
2018-Apr-15 06:48N 36°15' E 014°04'615.2
2018-Apr-15 06:25N 36°12' E 014°10'818.9
2018-Apr-15 06:00N 36°09' E 014°19'916.9
2018-Apr-15 05:29N 36°03' E 014°27'816.0
2018-Apr-15 04:59N 35°58' E 014°34'2 3.3
2018-Apr-15 04:29N 35°56' E 014°35'1 1.7
2018-Apr-15 04:00N 35°57' E 014°35'79616.7
2018-Apr-13 04:27N 35°30' E 030°54'817.2
2018-Apr-13 04:00N 35°31' E 031°03'917.2
2018-Apr-13 03:30N 35°33' E 031°14'  

Dump ship's entire track history